Knob Lick, KY (42154)

8:18 PM CDT on September 15, 2014 (GMT -0500)
KKYCAVEC2 | Change Station
CLOSE
Current Station
Personal Weather Station
Location: Cave City, KY
Elevation: 695 ft
Nearby Weather Stations

Elev 695 ft 37.13 °N, 85.86 °W | Updated 7 seconds ago

Partly Cloudy
Partly Cloudy
65.1 °F
Feels Like 65.1 °F
N
0.0
Wind Variable Wind from SSW
Gusts 0.0 mph

Today
High -- | Low -- °F
--% Chance of Precip.
Yesterday
High -- | Low -- °F
Precip. -- in
6:25 AM 6:50 PM
Waning Gibbous, 50% visible
Pressure 30.11 in
Visibility 10.0 miles
Clouds Clear
Dew Point 62 °F
Humidity 90%
Rainfall 0.00 in
Snow Depth Not available.
UV 0 out of 12
Pollen 7.00 out of 12
Air Quality Not available.
Flu Activity Not available.
METAR KGLW 160055Z AUTO 00000KT 10SM CLR 19/16 A3011 RMK AO2 T01910160

More Conditions Fewer Conditions

Pressure 30.11 in
Visibility 10.0 miles
Clouds Clear
Dew Point 62 °F
Humidity 90%
Rainfall 0.00 in
Snow Depth Not available.
UV 0 out of 12
Pollen 7.00 out of 12
Air Quality Not available.
Flu Activity Not available.
METAR KGLW 160055Z AUTO 00000KT 10SM CLR 19/16 A3011 RMK AO2 T01910160

More Conditions Fewer Conditions

10-Day Weather Forecast

Almanac

Astronomy

Sep. 15, 2014 Rise Set
Actual Time 6:25 AM CDT 6:50 PM CDT
Civil Twilight 5:58 AM CDT 7:16 PM CDT
Nautical Twilight 5:28 AM CDT 7:47 PM CDT
Astronomical Twilight 4:57 AM CDT 8:18 PM CDT
Moon 11:41 PM CDT (9/15) 1:16 PM CDT (9/15)
Length of Visible Light 13h 17m
Length of Day
12h 25m
Tomorrow will be 2m 20s shorter.
Waning Gibbous, 50% of the Moon is Illuminated
Today
Waning Gibbous
Sep 15
Last Quarter
Sep 24
New
Oct 1
First Quarter
Oct 8
Full

Today's Extremes

State Highs State Lows

Community

WunderPhotos

Upload Photos

1,753,643 photos uploaded!

WunderBlogs® & News

Nearby

Snow Depth

Station Depth Elevation
No new snow has been reported.

Earthquake Activity

City Distance Mag. Time & Date
No recent earthquake activity has been reported nearby.
Minimum magnitude displayed is 2.5.

Coastal Water Temperatures

Place Temperature
No Stations Reporting

Nearby Weather Stations